sensor_id;sensor_type;location;lat;lon;timestamp;P1;durP1;ratioP1;P2;durP2;ratioP2
50319;SDS011;36226;53.464;9.852;2023-02-24T00:01:45;5.55;;;0.80;;
50319;SDS011;36226;53.464;9.852;2023-02-24T00:04:15;5.47;;;1.77;;
50319;SDS011;36226;53.464;9.852;2023-02-24T00:06:41;6.32;;;0.70;;
50319;SDS011;36226;53.464;9.852;2023-02-24T00:09:12;7.78;;;0.90;;
50319;SDS011;36226;53.464;9.852;2023-02-24T00:11:45;4.35;;;0.70;;
50319;SDS011;36226;53.464;9.852;2023-02-24T00:14:13;2.85;;;0.70;;
50319;SDS011;36226;53.464;9.852;2023-02-24T00:16:43;8.25;;;0.70;;
50319;SDS011;36226;53.464;9.852;2023-02-24T00:19:13;5.22;;;1.00;;
50319;SDS011;36226;53.464;9.852;2023-02-24T00:21:40;6.82;;;0.70;;
50319;SDS011;36226;53.464;9.852;2023-02-24T00:24:06;6.88;;;0.90;;
50319;SDS011;36226;53.464;9.852;2023-02-24T00:26:32;8.70;;;0.82;;
50319;SDS011;36226;53.464;9.852;2023-02-24T00:28:58;4.15;;;0.68;;
50319;SDS011;36226;53.464;9.852;2023-02-24T00:31:28;8.30;;;0.95;;
50319;SDS011;36226;53.464;9.852;2023-02-24T00:34:00;11.85;;;1.02;;
50319;SDS011;36226;53.464;9.852;2023-02-24T00:36:29;5.05;;;1.30;;
50319;SDS011;36226;53.464;9.852;2023-02-24T00:38:59;8.88;;;0.77;;
50319;SDS011;36226;53.464;9.852;2023-02-24T00:41:27;5.75;;;0.85;;
50319;SDS011;36226;53.464;9.852;2023-02-24T00:43:54;6.85;;;0.85;;
50319;SDS011;36226;53.464;9.852;2023-02-24T00:46:22;10.68;;;1.00;;
50319;SDS011;36226;53.464;9.852;2023-02-24T00:48:49;8.85;;;0.88;;
50319;SDS011;36226;53.464;9.852;2023-02-24T00:51:19;4.18;;;0.80;;
50319;SDS011;36226;53.464;9.852;2023-02-24T00:53:47;6.13;;;0.98;;
50319;SDS011;36226;53.464;9.852;2023-02-24T00:56:13;5.82;;;0.80;;
50319;SDS011;36226;53.464;9.852;2023-02-24T00:58:40;6.90;;;1.23;;
50319;SDS011;36226;53.464;9.852;2023-02-24T01:01:17;7.72;;;0.70;;
50319;SDS011;36226;53.464;9.852;2023-02-24T01:03:44;8.60;;;0.80;;
50319;SDS011;36226;53.464;9.852;2023-02-24T01:06:11;3.88;;;0.77;;
50319;SDS011;36226;53.464;9.852;2023-02-24T01:08:38;5.00;;;0.80;;
50319;SDS011;36226;53.464;9.852;2023-02-24T01:11:07;5.93;;;0.80;;
50319;SDS011;36226;53.464;9.852;2023-02-24T01:13:51;17.00;;;1.65;;
50319;SDS011;36226;53.464;9.852;2023-02-24T01:16:16;4.15;;;1.13;;
50319;SDS011;36226;53.464;9.852;2023-02-24T01:18:45;6.80;;;0.80;;
50319;SDS011;36226;53.464;9.852;2023-02-24T01:21:15;10.55;;;2.95;;
50319;SDS011;36226;53.464;9.852;2023-02-24T01:23:41;4.72;;;0.60;;
50319;SDS011;36226;53.464;9.852;2023-02-24T01:26:08;9.90;;;1.08;;
50319;SDS011;36226;53.464;9.852;2023-02-24T01:28:34;6.15;;;0.70;;
50319;SDS011;36226;53.464;9.852;2023-02-24T01:31:00;5.93;;;0.95;;
50319;SDS011;36226;53.464;9.852;2023-02-24T01:33:26;6.00;;;0.95;;
50319;SDS011;36226;53.464;9.852;2023-02-24T01:35:53;5.45;;;0.63;;
50319;SDS011;36226;53.464;9.852;2023-02-24T01:38:19;8.25;;;0.80;;
50319;SDS011;36226;53.464;9.852;2023-02-24T01:40:54;8.07;;;0.70;;
50319;SDS011;36226;53.464;9.852;2023-02-24T01:43:20;7.80;;;1.52;;
50319;SDS011;36226;53.464;9.852;2023-02-24T01:45:46;7.22;;;1.00;;
50319;SDS011;36226;53.464;9.852;2023-02-24T01:48:15;10.90;;;1.15;;
50319;SDS011;36226;53.464;9.852;2023-02-24T01:50:41;7.00;;;0.90;;
50319;SDS011;36226;53.464;9.852;2023-02-24T01:53:07;5.22;;;1.20;;
50319;SDS011;36226;53.464;9.852;2023-02-24T01:55:37;7.95;;;0.93;;
50319;SDS011;36226;53.464;9.852;2023-02-24T01:58:08;9.55;;;1.05;;
50319;SDS011;36226;53.464;9.852;2023-02-24T02:00:37;5.70;;;0.90;;
50319;SDS011;36226;53.464;9.852;2023-02-24T02:03:19;7.90;;;0.85;;
50319;SDS011;36226;53.464;9.852;2023-02-24T02:05:52;4.15;;;0.80;;
50319;SDS011;36226;53.464;9.852;2023-02-24T02:08:20;8.10;;;1.00;;
50319;SDS011;36226;53.464;9.852;2023-02-24T02:10:47;4.72;;;0.80;;
50319;SDS011;36226;53.464;9.852;2023-02-24T02:13:13;5.20;;;0.90;;
50319;SDS011;36226;53.464;9.852;2023-02-24T02:15:50;4.97;;;0.77;;
50319;SDS011;36226;53.464;9.852;2023-02-24T02:24:30;5.10;;;0.88;;
50319;SDS011;36226;53.464;9.852;2023-02-24T02:30:11;3.97;;;0.73;;
50319;SDS011;36226;53.464;9.852;2023-02-24T02:38:21;9.20;;;0.80;;
50319;SDS011;36226;53.464;9.852;2023-02-24T02:40:54;9.88;;;1.02;;
50319;SDS011;36226;53.464;9.852;2023-02-24T02:43:56;3.88;;;0.90;;
50319;SDS011;36226;53.464;9.852;2023-02-24T02:49:10;7.05;;;0.75;;
50319;SDS011;36226;53.464;9.852;2023-02-24T02:51:45;8.60;;;1.17;;
50319;SDS011;36226;53.464;9.852;2023-02-24T02:54:17;5.95;;;1.25;;
50319;SDS011;36226;53.464;9.852;2023-02-24T02:59:23;8.82;;;1.08;;
50319;SDS011;36226;53.464;9.852;2023-02-24T03:01:51;9.77;;;1.25;;
50319;SDS011;36226;53.464;9.852;2023-02-24T03:04:20;8.07;;;0.73;;
50319;SDS011;36226;53.464;9.852;2023-02-24T03:06:48;7.15;;;0.75;;
50319;SDS011;36226;53.464;9.852;2023-02-24T03:09:18;6.63;;;1.23;;
50319;SDS011;36226;53.464;9.852;2023-02-24T03:11:46;6.20;;;0.82;;
50319;SDS011;36226;53.464;9.852;2023-02-24T03:14:16;3.70;;;0.73;;
50319;SDS011;36226;53.464;9.852;2023-02-24T03:16:44;4.85;;;0.77;;
50319;SDS011;36226;53.464;9.852;2023-02-24T03:19:13;8.02;;;0.73;;
50319;SDS011;36226;53.464;9.852;2023-02-24T03:21:41;3.65;;;0.90;;
50319;SDS011;36226;53.464;9.852;2023-02-24T03:24:12;10.55;;;0.98;;
50319;SDS011;36226;53.464;9.852;2023-02-24T03:26:40;5.05;;;0.88;;
50319;SDS011;36226;53.464;9.852;2023-02-24T03:32:27;3.47;;;0.63;;
50319;SDS011;36226;53.464;9.852;2023-02-24T03:35:05;5.65;;;0.80;;
50319;SDS011;36226;53.464;9.852;2023-02-24T03:37:36;6.20;;;0.95;;
50319;SDS011;36226;53.464;9.852;2023-02-24T03:40:03;10.02;;;0.98;;
50319;SDS011;36226;53.464;9.852;2023-02-24T03:42:48;8.75;;;1.05;;
50319;SDS011;36226;53.464;9.852;2023-02-24T03:45:16;5.82;;;0.52;;
50319;SDS011;36226;53.464;9.852;2023-02-24T03:47:41;5.47;;;0.85;;
50319;SDS011;36226;53.464;9.852;2023-02-24T03:50:11;3.72;;;0.60;;
50319;SDS011;36226;53.464;9.852;2023-02-24T03:52:39;5.47;;;1.10;;
50319;SDS011;36226;53.464;9.852;2023-02-24T03:57:51;7.13;;;0.65;;
50319;SDS011;36226;53.464;9.852;2023-02-24T04:00:36;6.63;;;0.90;;
50319;SDS011;36226;53.464;9.852;2023-02-24T04:08:28;7.95;;;0.80;;
50319;SDS011;36226;53.464;9.852;2023-02-24T04:11:21;3.08;;;0.52;;
50319;SDS011;36226;53.464;9.852;2023-02-24T04:14:12;10.02;;;1.20;;
50319;SDS011;36226;53.464;9.852;2023-02-24T04:16:54;5.78;;;0.95;;
50319;SDS011;36226;53.464;9.852;2023-02-24T04:19:43;4.88;;;0.82;;
50319;SDS011;36226;53.464;9.852;2023-02-24T04:22:11;2.00;;;0.50;;
50319;SDS011;36226;53.464;9.852;2023-02-24T04:24:38;5.80;;;1.25;;
50319;SDS011;36226;53.464;9.852;2023-02-24T04:27:05;8.60;;;1.30;;
50319;SDS011;36226;53.464;9.852;2023-02-24T04:29:33;6.72;;;0.90;;
50319;SDS011;36226;53.464;9.852;2023-02-24T04:32:07;5.53;;;1.00;;
50319;SDS011;36226;53.464;9.852;2023-02-24T04:34:34;4.05;;;1.10;;
50319;SDS011;36226;53.464;9.852;2023-02-24T04:37:00;7.40;;;0.95;;
50319;SDS011;36226;53.464;9.852;2023-02-24T04:39:26;3.88;;;0.70;;
50319;SDS011;36226;53.464;9.852;2023-02-24T04:41:52;4.40;;;0.63;;
50319;SDS011;36226;53.464;9.852;2023-02-24T04:44:19;8.20;;;1.00;;
50319;SDS011;36226;53.464;9.852;2023-02-24T04:46:45;5.93;;;0.90;;
50319;SDS011;36226;53.464;9.852;2023-02-24T04:49:11;9.00;;;1.48;;
50319;SDS011;36226;53.464;9.852;2023-02-24T04:51:37;3.72;;;0.80;;
50319;SDS011;36226;53.464;9.852;2023-02-24T04:54:16;5.32;;;0.82;;
50319;SDS011;36226;53.464;9.852;2023-02-24T04:56:46;5.80;;;0.80;;
50319;SDS011;36226;53.464;9.852;2023-02-24T04:59:14;7.50;;;1.08;;
50319;SDS011;36226;53.464;9.852;2023-02-24T05:01:41;4.68;;;0.88;;
50319;SDS011;36226;53.464;9.852;2023-02-24T05:04:08;4.47;;;0.70;;
50319;SDS011;36226;53.464;9.852;2023-02-24T05:06:34;5.63;;;0.90;;
50319;SDS011;36226;53.464;9.852;2023-02-24T05:09:04;4.70;;;0.80;;
50319;SDS011;36226;53.464;9.852;2023-02-24T05:11:38;1.05;;;0.57;;
50319;SDS011;36226;53.464;9.852;2023-02-24T05:14:10;3.50;;;0.80;;
50319;SDS011;36226;53.464;9.852;2023-02-24T05:16:44;5.97;;;0.60;;
50319;SDS011;36226;53.464;9.852;2023-02-24T05:19:11;5.00;;;0.85;;
50319;SDS011;36226;53.464;9.852;2023-02-24T05:21:55;6.28;;;0.90;;
50319;SDS011;36226;53.464;9.852;2023-02-24T05:24:24;7.63;;;0.88;;
50319;SDS011;36226;53.464;9.852;2023-02-24T05:26:52;8.95;;;1.25;;
50319;SDS011;36226;53.464;9.852;2023-02-24T05:29:22;3.55;;;0.52;;
50319;SDS011;36226;53.464;9.852;2023-02-24T05:31:52;7.95;;;1.33;;
50319;SDS011;36226;53.464;9.852;2023-02-24T05:34:23;8.27;;;0.80;;
50319;SDS011;36226;53.464;9.852;2023-02-24T05:36:54;7.05;;;0.82;;
50319;SDS011;36226;53.464;9.852;2023-02-24T05:39:21;6.82;;;1.13;;
50319;SDS011;36226;53.464;9.852;2023-02-24T05:41:47;7.53;;;1.10;;
50319;SDS011;36226;53.464;9.852;2023-02-24T05:44:14;3.50;;;0.70;;
50319;SDS011;36226;53.464;9.852;2023-02-24T05:46:42;3.95;;;0.80;;
50319;SDS011;36226;53.464;9.852;2023-02-24T05:49:18;5.13;;;0.82;;
50319;SDS011;36226;53.464;9.852;2023-02-24T05:51:51;3.97;;;0.77;;
50319;SDS011;36226;53.464;9.852;2023-02-24T05:54:21;9.18;;;1.75;;
50319;SDS011;36226;53.464;9.852;2023-02-24T05:56:52;9.30;;;1.10;;
50319;SDS011;36226;53.464;9.852;2023-02-24T05:59:20;8.20;;;1.15;;
50319;SDS011;36226;53.464;9.852;2023-02-24T06:01:46;3.67;;;0.95;;
50319;SDS011;36226;53.464;9.852;2023-02-24T06:04:13;4.15;;;1.20;;
50319;SDS011;36226;53.464;9.852;2023-02-24T06:06:45;4.07;;;1.02;;
50319;SDS011;36226;53.464;9.852;2023-02-24T06:09:16;6.88;;;0.85;;
50319;SDS011;36226;53.464;9.852;2023-02-24T06:11:43;10.63;;;0.93;;
50319;SDS011;36226;53.464;9.852;2023-02-24T06:14:09;6.97;;;0.90;;
50319;SDS011;36226;53.464;9.852;2023-02-24T06:16:36;4.72;;;0.85;;
50319;SDS011;36226;53.464;9.852;2023-02-24T06:19:04;10.82;;;1.10;;
50319;SDS011;36226;53.464;9.852;2023-02-24T06:21:29;7.15;;;1.13;;
50319;SDS011;36226;53.464;9.852;2023-02-24T06:23:56;5.95;;;0.90;;
50319;SDS011;36226;53.464;9.852;2023-02-24T06:26:22;6.57;;;0.75;;
50319;SDS011;36226;53.464;9.852;2023-02-24T06:28:54;9.13;;;1.27;;
50319;SDS011;36226;53.464;9.852;2023-02-24T06:31:20;11.23;;;1.33;;
50319;SDS011;36226;53.464;9.852;2023-02-24T06:33:46;5.63;;;0.98;;
50319;SDS011;36226;53.464;9.852;2023-02-24T06:36:11;9.80;;;1.30;;
50319;SDS011;36226;53.464;9.852;2023-02-24T06:38:40;7.68;;;1.00;;
50319;SDS011;36226;53.464;9.852;2023-02-24T06:41:06;7.15;;;1.02;;
50319;SDS011;36226;53.464;9.852;2023-02-24T06:43:38;7.93;;;1.10;;
50319;SDS011;36226;53.464;9.852;2023-02-24T06:46:04;6.45;;;1.58;;
50319;SDS011;36226;53.464;9.852;2023-02-24T06:48:35;5.90;;;1.10;;
50319;SDS011;36226;53.464;9.852;2023-02-24T06:51:02;2.83;;;1.00;;
50319;SDS011;36226;53.464;9.852;2023-02-24T06:53:29;7.05;;;1.02;;
50319;SDS011;36226;53.464;9.852;2023-02-24T06:55:58;4.75;;;1.00;;
50319;SDS011;36226;53.464;9.852;2023-02-24T06:58:27;6.68;;;1.15;;
50319;SDS011;36226;53.464;9.852;2023-02-24T07:00:53;10.25;;;1.73;;
50319;SDS011;36226;53.464;9.852;2023-02-24T07:03:24;11.20;;;1.58;;
50319;SDS011;36226;53.464;9.852;2023-02-24T07:06:06;8.73;;;1.50;;
50319;SDS011;36226;53.464;9.852;2023-02-24T07:08:44;5.35;;;1.65;;
50319;SDS011;36226;53.464;9.852;2023-02-24T07:11:10;8.07;;;1.70;;
50319;SDS011;36226;53.464;9.852;2023-02-24T07:13:38;6.28;;;1.70;;
50319;SDS011;36226;53.464;9.852;2023-02-24T07:16:05;6.30;;;1.83;;
50319;SDS011;36226;53.464;9.852;2023-02-24T07:18:31;8.20;;;2.05;;
50319;SDS011;36226;53.464;9.852;2023-02-24T07:21:01;6.75;;;1.95;;
50319;SDS011;36226;53.464;9.852;2023-02-24T07:23:35;5.13;;;2.10;;
50319;SDS011;36226;53.464;9.852;2023-02-24T07:26:14;4.30;;;2.13;;
50319;SDS011;36226;53.464;9.852;2023-02-24T07:28:42;7.10;;;2.17;;
50319;SDS011;36226;53.464;9.852;2023-02-24T07:31:08;7.22;;;2.15;;
50319;SDS011;36226;53.464;9.852;2023-02-24T07:33:35;8.80;;;2.47;;
50319;SDS011;36226;53.464;9.852;2023-02-24T07:36:03;9.90;;;2.83;;
50319;SDS011;36226;53.464;9.852;2023-02-24T07:38:35;9.10;;;2.30;;
50319;SDS011;36226;53.464;9.852;2023-02-24T07:41:02;6.63;;;2.10;;
50319;SDS011;36226;53.464;9.852;2023-02-24T07:43:30;7.47;;;3.13;;
50319;SDS011;36226;53.464;9.852;2023-02-24T07:45:56;7.10;;;2.05;;
50319;SDS011;36226;53.464;9.852;2023-02-24T07:48:22;5.25;;;2.50;;
50319;SDS011;36226;53.464;9.852;2023-02-24T07:50:47;14.27;;;2.85;;
50319;SDS011;36226;53.464;9.852;2023-02-24T07:53:14;10.77;;;2.85;;
50319;SDS011;36226;53.464;9.852;2023-02-24T07:55:40;7.00;;;2.67;;
50319;SDS011;36226;53.464;9.852;2023-02-24T07:58:05;6.80;;;3.20;;
50319;SDS011;36226;53.464;9.852;2023-02-24T08:00:31;9.32;;;4.13;;
50319;SDS011;36226;53.464;9.852;2023-02-24T08:03:13;9.82;;;3.75;;
50319;SDS011;36226;53.464;9.852;2023-02-24T08:05:39;11.88;;;3.75;;
50319;SDS011;36226;53.464;9.852;2023-02-24T08:08:07;10.55;;;4.53;;
50319;SDS011;36226;53.464;9.852;2023-02-24T08:10:33;9.60;;;4.90;;
50319;SDS011;36226;53.464;9.852;2023-02-24T08:13:01;13.30;;;4.95;;
50319;SDS011;36226;53.464;9.852;2023-02-24T08:15:27;10.43;;;4.78;;
50319;SDS011;36226;53.464;9.852;2023-02-24T08:17:59;9.40;;;5.68;;
50319;SDS011;36226;53.464;9.852;2023-02-24T08:20:26;15.48;;;5.68;;
50319;SDS011;36226;53.464;9.852;2023-02-24T08:22:54;13.23;;;5.50;;
50319;SDS011;36226;53.464;9.852;2023-02-24T08:25:21;9.73;;;5.70;;
50319;SDS011;36226;53.464;9.852;2023-02-24T08:27:50;11.85;;;5.47;;
50319;SDS011;36226;53.464;9.852;2023-02-24T08:30:23;12.70;;;6.20;;
50319;SDS011;36226;53.464;9.852;2023-02-24T08:32:54;9.90;;;5.03;;
50319;SDS011;36226;53.464;9.852;2023-02-24T08:35:28;9.23;;;4.80;;
50319;SDS011;36226;53.464;9.852;2023-02-24T08:40:37;6.13;;;3.40;;
50319;SDS011;36226;53.464;9.852;2023-02-24T08:43:14;5.53;;;3.03;;
50319;SDS011;36226;53.464;9.852;2023-02-24T08:46:04;5.15;;;3.03;;
50319;SDS011;36226;53.464;9.852;2023-02-24T08:48:44;4.68;;;2.67;;
50319;SDS011;36226;53.464;9.852;2023-02-24T08:53:42;5.03;;;2.42;;
50319;SDS011;36226;53.464;9.852;2023-02-24T08:56:09;6.40;;;3.22;;
50319;SDS011;36226;53.464;9.852;2023-02-24T08:58:42;6.55;;;3.13;;
50319;SDS011;36226;53.464;9.852;2023-02-24T09:01:16;8.80;;;3.40;;
50319;SDS011;36226;53.464;9.852;2023-02-24T09:03:46;6.30;;;2.97;;
50319;SDS011;36226;53.464;9.852;2023-02-24T09:06:17;5.60;;;3.58;;
50319;SDS011;36226;53.464;9.852;2023-02-24T09:08:50;4.95;;;2.80;;
50319;SDS011;36226;53.464;9.852;2023-02-24T09:11:36;6.10;;;3.38;;
50319;SDS011;36226;53.464;9.852;2023-02-24T09:14:02;4.68;;;2.83;;
50319;SDS011;36226;53.464;9.852;2023-02-24T09:16:28;6.43;;;2.60;;
50319;SDS011;36226;53.464;9.852;2023-02-24T09:18:54;5.47;;;2.80;;
50319;SDS011;36226;53.464;9.852;2023-02-24T09:21:38;5.88;;;2.97;;
50319;SDS011;36226;53.464;9.852;2023-02-24T09:24:12;5.75;;;2.90;;
50319;SDS011;36226;53.464;9.852;2023-02-24T09:26:37;4.80;;;2.70;;
50319;SDS011;36226;53.464;9.852;2023-02-24T09:29:12;6.63;;;2.75;;
50319;SDS011;36226;53.464;9.852;2023-02-24T09:31:56;4.05;;;2.45;;
50319;SDS011;36226;53.464;9.852;2023-02-24T09:34:39;6.13;;;2.65;;
50319;SDS011;36226;53.464;9.852;2023-02-24T09:37:08;6.45;;;2.67;;
50319;SDS011;36226;53.464;9.852;2023-02-24T09:39:48;7.72;;;2.63;;
50319;SDS011;36226;53.464;9.852;2023-02-24T09:42:23;4.00;;;2.35;;
50319;SDS011;36226;53.464;9.852;2023-02-24T09:44:54;4.53;;;2.83;;
50319;SDS011;36226;53.464;9.852;2023-02-24T09:47:23;5.95;;;3.28;;
50319;SDS011;36226;53.464;9.852;2023-02-24T09:52:38;5.75;;;2.72;;
50319;SDS011;36226;53.464;9.852;2023-02-24T09:57:36;5.72;;;2.95;;
50319;SDS011;36226;53.464;9.852;2023-02-24T10:00:19;10.00;;;3.13;;
50319;SDS011;36226;53.464;9.852;2023-02-24T10:02:51;5.20;;;2.83;;
50319;SDS011;36226;53.464;9.852;2023-02-24T10:05:46;6.68;;;2.83;;
50319;SDS011;36226;53.464;9.852;2023-02-24T10:08:25;8.15;;;3.70;;
50319;SDS011;36226;53.464;9.852;2023-02-24T10:10:56;5.50;;;3.13;;
50319;SDS011;36226;53.464;9.852;2023-02-24T10:13:31;5.38;;;3.33;;
50319;SDS011;36226;53.464;9.852;2023-02-24T10:16:03;6.68;;;3.67;;
50319;SDS011;36226;53.464;9.852;2023-02-24T10:24:50;7.43;;;4.07;;
50319;SDS011;36226;53.464;9.852;2023-02-24T10:30:37;6.22;;;3.65;;
50319;SDS011;36226;53.464;9.852;2023-02-24T10:33:16;7.38;;;3.67;;
50319;SDS011;36226;53.464;9.852;2023-02-24T10:35:44;6.28;;;3.72;;
50319;SDS011;36226;53.464;9.852;2023-02-24T10:38:10;10.30;;;4.35;;
50319;SDS011;36226;53.464;9.852;2023-02-24T10:40:43;8.70;;;4.40;;
50319;SDS011;36226;53.464;9.852;2023-02-24T10:43:23;8.48;;;4.85;;
50319;SDS011;36226;53.464;9.852;2023-02-24T10:45:55;12.48;;;5.18;;
50319;SDS011;36226;53.464;9.852;2023-02-24T10:48:31;8.95;;;4.97;;
50319;SDS011;36226;53.464;9.852;2023-02-24T10:51:06;9.23;;;4.68;;
50319;SDS011;36226;53.464;9.852;2023-02-24T10:53:35;9.18;;;4.78;;
50319;SDS011;36226;53.464;9.852;2023-02-24T10:56:09;11.73;;;5.15;;
50319;SDS011;36226;53.464;9.852;2023-02-24T10:59:11;10.35;;;5.53;;
50319;SDS011;36226;53.464;9.852;2023-02-24T11:02:14;11.80;;;5.65;;
50319;SDS011;36226;53.464;9.852;2023-02-24T11:05:11;11.07;;;5.97;;
50319;SDS011;36226;53.464;9.852;2023-02-24T11:08:15;12.05;;;6.50;;
50319;SDS011;36226;53.464;9.852;2023-02-24T11:11:01;12.18;;;6.55;;
50319;SDS011;36226;53.464;9.852;2023-02-24T11:13:32;13.90;;;7.47;;
50319;SDS011;36226;53.464;9.852;2023-02-24T11:16:16;13.68;;;6.90;;
50319;SDS011;36226;53.464;9.852;2023-02-24T11:19:01;13.20;;;6.35;;
50319;SDS011;36226;53.464;9.852;2023-02-24T11:21:26;11.02;;;6.45;;
50319;SDS011;36226;53.464;9.852;2023-02-24T11:23:55;15.30;;;7.38;;
50319;SDS011;36226;53.464;9.852;2023-02-24T11:26:36;11.82;;;5.72;;
50319;SDS011;36226;53.464;9.852;2023-02-24T11:40:18;11.32;;;6.82;;
50319;SDS011;36226;53.464;9.852;2023-02-24T11:48:19;13.82;;;6.65;;
50319;SDS011;36226;53.464;9.852;2023-02-24T11:56:02;9.45;;;5.57;;
50319;SDS011;36226;53.464;9.852;2023-02-24T11:58:38;9.82;;;4.82;;
50319;SDS011;36226;53.464;9.852;2023-02-24T12:01:17;10.48;;;5.53;;
50319;SDS011;36226;53.464;9.852;2023-02-24T12:03:52;9.55;;;5.88;;
50319;SDS011;36226;53.464;9.852;2023-02-24T12:06:20;9.70;;;5.55;;
50319;SDS011;36226;53.464;9.852;2023-02-24T12:08:50;10.48;;;5.32;;
50319;SDS011;36226;53.464;9.852;2023-02-24T12:14:09;9.90;;;4.82;;
50319;SDS011;36226;53.464;9.852;2023-02-24T12:16:41;10.70;;;4.97;;
50319;SDS011;36226;53.464;9.852;2023-02-24T12:21:44;11.85;;;4.20;;
50319;SDS011;36226;53.464;9.852;2023-02-24T12:24:16;11.07;;;5.05;;
50319;SDS011;36226;53.464;9.852;2023-02-24T12:26:56;11.70;;;5.45;;
50319;SDS011;36226;53.464;9.852;2023-02-24T12:50:06;10.13;;;5.05;;
50319;SDS011;36226;53.464;9.852;2023-02-24T13:00:32;11.02;;;5.35;;
50319;SDS011;36226;53.464;9.852;2023-02-24T13:03:20;13.45;;;5.03;;
50319;SDS011;36226;53.464;9.852;2023-02-24T13:14:22;13.98;;;5.93;;
50319;SDS011;36226;53.464;9.852;2023-02-24T13:19:33;14.27;;;6.05;;
50319;SDS011;36226;53.464;9.852;2023-02-24T13:24:42;12.75;;;5.03;;
50319;SDS011;36226;53.464;9.852;2023-02-24T13:27:20;9.70;;;4.60;;
50319;SDS011;36226;53.464;9.852;2023-02-24T13:30:22;9.23;;;4.75;;
50319;SDS011;36226;53.464;9.852;2023-02-24T13:33:02;10.68;;;4.85;;
50319;SDS011;36226;53.464;9.852;2023-02-24T13:35:42;10.45;;;4.50;;
50319;SDS011;36226;53.464;9.852;2023-02-24T13:41:06;8.98;;;4.20;;
50319;SDS011;36226;53.464;9.852;2023-02-24T13:43:31;10.70;;;3.97;;
50319;SDS011;36226;53.464;9.852;2023-02-24T13:46:01;9.30;;;4.10;;
50319;SDS011;36226;53.464;9.852;2023-02-24T13:51:53;9.55;;;3.92;;
50319;SDS011;36226;53.464;9.852;2023-02-24T14:04:58;15.98;;;7.28;;
50319;SDS011;36226;53.464;9.852;2023-02-24T14:07:28;8.77;;;2.85;;
50319;SDS011;36226;53.464;9.852;2023-02-24T14:09:57;17.10;;;3.53;;
50319;SDS011;36226;53.464;9.852;2023-02-24T14:12:34;12.00;;;3.78;;
50319;SDS011;36226;53.464;9.852;2023-02-24T14:15:00;13.02;;;3.47;;
50319;SDS011;36226;53.464;9.852;2023-02-24T14:17:28;15.52;;;3.60;;
50319;SDS011;36226;53.464;9.852;2023-02-24T14:20:39;15.20;;;3.05;;
50319;SDS011;36226;53.464;9.852;2023-02-24T14:22:55;12.90;;;2.05;;
50319;SDS011;36226;53.464;9.852;2023-02-24T14:25:22;13.93;;;2.40;;
50319;SDS011;36226;53.464;9.852;2023-02-24T14:30:27;14.57;;;1.80;;
50319;SDS011;36226;53.464;9.852;2023-02-24T14:32:58;13.73;;;1.83;;
50319;SDS011;36226;53.464;9.852;2023-02-24T14:35:26;12.30;;;2.38;;
50319;SDS011;36226;53.464;9.852;2023-02-24T14:37:59;14.60;;;2.67;;
50319;SDS011;36226;53.464;9.852;2023-02-24T14:40:24;14.82;;;2.05;;
50319;SDS011;36226;53.464;9.852;2023-02-24T14:42:50;11.70;;;2.10;;
50319;SDS011;36226;53.464;9.852;2023-02-24T14:45:19;10.25;;;1.80;;
50319;SDS011;36226;53.464;9.852;2023-02-24T14:47:46;17.17;;;2.05;;
50319;SDS011;36226;53.464;9.852;2023-02-24T14:50:15;17.40;;;2.22;;
50319;SDS011;36226;53.464;9.852;2023-02-24T14:52:49;13.55;;;1.85;;
50319;SDS011;36226;53.464;9.852;2023-02-24T14:55:20;10.90;;;2.78;;
50319;SDS011;36226;53.464;9.852;2023-02-24T15:00:16;11.80;;;2.30;;
50319;SDS011;36226;53.464;9.852;2023-02-24T15:02:50;14.05;;;2.30;;
50319;SDS011;36226;53.464;9.852;2023-02-24T15:05:20;17.80;;;1.73;;
50319;SDS011;36226;53.464;9.852;2023-02-24T15:07:45;14.88;;;2.08;;
50319;SDS011;36226;53.464;9.852;2023-02-24T15:10:16;10.50;;;2.75;;
50319;SDS011;36226;53.464;9.852;2023-02-24T15:12:47;14.07;;;3.38;;
50319;SDS011;36226;53.464;9.852;2023-02-24T15:15:20;8.50;;;1.40;;
50319;SDS011;36226;53.464;9.852;2023-02-24T15:17:46;6.13;;;1.00;;
50319;SDS011;36226;53.464;9.852;2023-02-24T15:20:28;11.52;;;2.10;;
50319;SDS011;36226;53.464;9.852;2023-02-24T15:22:58;9.88;;;1.13;;
50319;SDS011;36226;53.464;9.852;2023-02-24T15:31:01;12.43;;;1.52;;
50319;SDS011;36226;53.464;9.852;2023-02-24T15:33:19;10.13;;;1.23;;
50319;SDS011;36226;53.464;9.852;2023-02-24T15:35:56;8.48;;;1.75;;
50319;SDS011;36226;53.464;9.852;2023-02-24T15:38:29;9.93;;;1.55;;
50319;SDS011;36226;53.464;9.852;2023-02-24T15:40:58;10.63;;;1.20;;
50319;SDS011;36226;53.464;9.852;2023-02-24T15:43:35;9.60;;;1.15;;
50319;SDS011;36226;53.464;9.852;2023-02-24T15:46:12;2.88;;;0.95;;
50319;SDS011;36226;53.464;9.852;2023-02-24T15:48:45;5.60;;;0.90;;
50319;SDS011;36226;53.464;9.852;2023-02-24T15:51:25;3.67;;;1.00;;
50319;SDS011;36226;53.464;9.852;2023-02-24T15:53:58;6.90;;;1.60;;
50319;SDS011;36226;53.464;9.852;2023-02-24T15:56:25;5.43;;;1.33;;
50319;SDS011;36226;53.464;9.852;2023-02-24T15:58:51;5.57;;;0.88;;
50319;SDS011;36226;53.464;9.852;2023-02-24T16:01:16;5.15;;;0.90;;
50319;SDS011;36226;53.464;9.852;2023-02-24T16:03:41;7.82;;;0.98;;
50319;SDS011;36226;53.464;9.852;2023-02-24T16:06:11;5.45;;;0.90;;
50319;SDS011;36226;53.464;9.852;2023-02-24T16:08:44;3.35;;;0.80;;
50319;SDS011;36226;53.464;9.852;2023-02-24T16:11:11;8.32;;;1.20;;
50319;SDS011;36226;53.464;9.852;2023-02-24T16:13:37;4.85;;;1.10;;
50319;SDS011;36226;53.464;9.852;2023-02-24T16:16:04;6.22;;;1.20;;
50319;SDS011;36226;53.464;9.852;2023-02-24T16:18:31;5.35;;;1.10;;
50319;SDS011;36226;53.464;9.852;2023-02-24T16:20:57;9.90;;;1.50;;
50319;SDS011;36226;53.464;9.852;2023-02-24T16:23:23;3.30;;;1.00;;
50319;SDS011;36226;53.464;9.852;2023-02-24T16:25:50;6.65;;;1.38;;
50319;SDS011;36226;53.464;9.852;2023-02-24T16:28:19;11.80;;;1.98;;
50319;SDS011;36226;53.464;9.852;2023-02-24T16:30:45;6.78;;;1.30;;
50319;SDS011;36226;53.464;9.852;2023-02-24T16:33:13;7.35;;;1.60;;
50319;SDS011;36226;53.464;9.852;2023-02-24T16:35:40;10.73;;;1.60;;
50319;SDS011;36226;53.464;9.852;2023-02-24T16:38:12;8.15;;;1.80;;
50319;SDS011;36226;53.464;9.852;2023-02-24T16:40:39;6.97;;;1.95;;
50319;SDS011;36226;53.464;9.852;2023-02-24T16:43:06;11.95;;;2.28;;
50319;SDS011;36226;53.464;9.852;2023-02-24T16:45:32;22.50;;;5.82;;
50319;SDS011;36226;53.464;9.852;2023-02-24T16:47:59;12.57;;;3.22;;
50319;SDS011;36226;53.464;9.852;2023-02-24T16:50:30;9.32;;;2.15;;
50319;SDS011;36226;53.464;9.852;2023-02-24T16:52:58;9.98;;;2.35;;
50319;SDS011;36226;53.464;9.852;2023-02-24T16:55:23;11.25;;;2.10;;
50319;SDS011;36226;53.464;9.852;2023-02-24T16:57:49;8.38;;;1.77;;
50319;SDS011;36226;53.464;9.852;2023-02-24T17:00:15;12.70;;;1.77;;
50319;SDS011;36226;53.464;9.852;2023-02-24T17:02:42;16.13;;;2.50;;
50319;SDS011;36226;53.464;9.852;2023-02-24T17:05:21;10.50;;;2.42;;
50319;SDS011;36226;53.464;9.852;2023-02-24T17:07:49;13.77;;;1.90;;
50319;SDS011;36226;53.464;9.852;2023-02-24T17:10:16;15.60;;;2.65;;
50319;SDS011;36226;53.464;9.852;2023-02-24T17:12:41;13.43;;;2.05;;
50319;SDS011;36226;53.464;9.852;2023-02-24T17:15:09;15.23;;;2.90;;
50319;SDS011;36226;53.464;9.852;2023-02-24T17:17:38;22.80;;;4.13;;
50319;SDS011;36226;53.464;9.852;2023-02-24T17:20:03;16.90;;;2.20;;
50319;SDS011;36226;53.464;9.852;2023-02-24T17:22:29;15.63;;;2.92;;
50319;SDS011;36226;53.464;9.852;2023-02-24T17:24:54;19.58;;;2.60;;
50319;SDS011;36226;53.464;9.852;2023-02-24T17:27:19;15.40;;;2.22;;
50319;SDS011;36226;53.464;9.852;2023-02-24T17:29:45;16.90;;;2.35;;
50319;SDS011;36226;53.464;9.852;2023-02-24T17:32:10;14.95;;;2.40;;
50319;SDS011;36226;53.464;9.852;2023-02-24T17:34:36;14.90;;;2.90;;